sensor_id;sensor_type;location;lat;lon;timestamp;temperature;humidity
51175;DHT22;37240;50.104;20.010;2023-03-23T00:02:48;14.30;92.40
51175;DHT22;37240;50.104;20.010;2023-03-23T00:07:49;14.20;92.70
51175;DHT22;37240;50.104;20.010;2023-03-23T00:12:49;14.20;92.90
51175;DHT22;37240;50.104;20.010;2023-03-23T00:17:50;14.10;93.00
51175;DHT22;37240;50.104;20.010;2023-03-23T00:22:50;14.00;93.00
51175;DHT22;37240;50.104;20.010;2023-03-23T00:27:51;14.00;93.10
51175;DHT22;37240;50.104;20.010;2023-03-23T00:32:52;14.00;93.10
51175;DHT22;37240;50.104;20.010;2023-03-23T00:37:52;14.00;93.10
51175;DHT22;37240;50.104;20.010;2023-03-23T00:42:53;13.90;93.10
51175;DHT22;37240;50.104;20.010;2023-03-23T00:47:53;14.00;93.10
51175;DHT22;37240;50.104;20.010;2023-03-23T00:52:54;14.00;93.00
51175;DHT22;37240;50.104;20.010;2023-03-23T00:57:54;13.90;93.20
51175;DHT22;37240;50.104;20.010;2023-03-23T01:02:55;13.90;93.30
51175;DHT22;37240;50.104;20.010;2023-03-23T01:07:55;13.80;93.70
51175;DHT22;37240;50.104;20.010;2023-03-23T01:12:56;13.70;93.70
51175;DHT22;37240;50.104;20.010;2023-03-23T01:17:57;13.70;93.90
51175;DHT22;37240;50.104;20.010;2023-03-23T01:22:58;13.70;94.10
51175;DHT22;37240;50.104;20.010;2023-03-23T01:27:59;13.60;94.40
51175;DHT22;37240;50.104;20.010;2023-03-23T01:32:59;13.50;94.60
51175;DHT22;37240;50.104;20.010;2023-03-23T01:38:00;13.40;94.90
51175;DHT22;37240;50.104;20.010;2023-03-23T01:43:00;13.40;95.00
51175;DHT22;37240;50.104;20.010;2023-03-23T01:48:15;13.40;95.10
51175;DHT22;37240;50.104;20.010;2023-03-23T01:53:17;13.40;95.20
51175;DHT22;37240;50.104;20.010;2023-03-23T01:58:22;13.30;95.20
51175;DHT22;37240;50.104;20.010;2023-03-23T02:03:24;13.40;95.30
51175;DHT22;37240;50.104;20.010;2023-03-23T02:08:27;13.40;95.20
51175;DHT22;37240;50.104;20.010;2023-03-23T02:13:28;13.40;95.20
51175;DHT22;37240;50.104;20.010;2023-03-23T02:29:02;13.50;94.90
51175;DHT22;37240;50.104;20.010;2023-03-23T02:34:14;13.60;94.80
51175;DHT22;37240;50.104;20.010;2023-03-23T02:39:19;13.60;94.80
51175;DHT22;37240;50.104;20.010;2023-03-23T02:44:22;13.60;94.70
51175;DHT22;37240;50.104;20.010;2023-03-23T02:49:26;13.60;94.70
51175;DHT22;37240;50.104;20.010;2023-03-23T02:54:28;13.70;94.40
51175;DHT22;37240;50.104;20.010;2023-03-23T02:59:29;13.80;94.10
51175;DHT22;37240;50.104;20.010;2023-03-23T03:04:32;13.80;94.10
51175;DHT22;37240;50.104;20.010;2023-03-23T03:14:58;13.80;94.20
51175;DHT22;37240;50.104;20.010;2023-03-23T03:20:03;13.90;94.30
51175;DHT22;37240;50.104;20.010;2023-03-23T03:25:06;13.90;94.20
51175;DHT22;37240;50.104;20.010;2023-03-23T03:30:11;13.80;94.30
51175;DHT22;37240;50.104;20.010;2023-03-23T03:35:12;13.80;94.10
51175;DHT22;37240;50.104;20.010;2023-03-23T03:40:15;13.70;94.20
51175;DHT22;37240;50.104;20.010;2023-03-23T03:45:18;13.70;94.40
51175;DHT22;37240;50.104;20.010;2023-03-23T03:50:19;13.70;94.50
51175;DHT22;37240;50.104;20.010;2023-03-23T03:55:20;13.70;94.50
51175;DHT22;37240;50.104;20.010;2023-03-23T04:00:21;13.50;94.60
51175;DHT22;37240;50.104;20.010;2023-03-23T04:05:22;13.50;94.80
51175;DHT22;37240;50.104;20.010;2023-03-23T04:10:23;13.40;95.10
51175;DHT22;37240;50.104;20.010;2023-03-23T04:15:23;13.30;95.20
51175;DHT22;37240;50.104;20.010;2023-03-23T04:20:24;13.20;95.60
51175;DHT22;37240;50.104;20.010;2023-03-23T04:25:25;13.10;95.80
51175;DHT22;37240;50.104;20.010;2023-03-23T04:30:25;13.00;96.00
51175;DHT22;37240;50.104;20.010;2023-03-23T04:35:26;12.90;96.30
51175;DHT22;37240;50.104;20.010;2023-03-23T04:40:27;12.90;96.50
51175;DHT22;37240;50.104;20.010;2023-03-23T04:45:27;12.90;96.40
51175;DHT22;37240;50.104;20.010;2023-03-23T04:50:29;12.90;96.60
51175;DHT22;37240;50.104;20.010;2023-03-23T04:55:34;12.90;96.80
51175;DHT22;37240;50.104;20.010;2023-03-23T05:00:36;12.80;97.00
51175;DHT22;37240;50.104;20.010;2023-03-23T05:05:36;12.80;97.20
51175;DHT22;37240;50.104;20.010;2023-03-23T05:10:37;12.90;97.20
51175;DHT22;37240;50.104;20.010;2023-03-23T05:15:37;13.00;96.90
51175;DHT22;37240;50.104;20.010;2023-03-23T05:20:38;13.10;96.70
51175;DHT22;37240;50.104;20.010;2023-03-23T05:25:39;13.20;96.50
51175;DHT22;37240;50.104;20.010;2023-03-23T05:30:40;13.30;96.20
51175;DHT22;37240;50.104;20.010;2023-03-23T05:35:40;13.30;96.00
51175;DHT22;37240;50.104;20.010;2023-03-23T05:40:41;13.40;95.90
51175;DHT22;37240;50.104;20.010;2023-03-23T05:45:41;13.50;95.70
51175;DHT22;37240;50.104;20.010;2023-03-23T05:50:42;13.70;95.40
51175;DHT22;37240;50.104;20.010;2023-03-23T05:55:42;13.90;94.90
51175;DHT22;37240;50.104;20.010;2023-03-23T06:00:43;14.10;94.60
51175;DHT22;37240;50.104;20.010;2023-03-23T06:05:44;14.30;94.50
51175;DHT22;37240;50.104;20.010;2023-03-23T06:10:44;14.70;94.30
51175;DHT22;37240;50.104;20.010;2023-03-23T06:15:45;15.30;93.90
51175;DHT22;37240;50.104;20.010;2023-03-23T06:20:45;15.90;92.90
51175;DHT22;37240;50.104;20.010;2023-03-23T06:25:46;16.50;90.70
51175;DHT22;37240;50.104;20.010;2023-03-23T06:30:47;17.00;88.80
51175;DHT22;37240;50.104;20.010;2023-03-23T06:35:47;17.50;84.80
51175;DHT22;37240;50.104;20.010;2023-03-23T06:40:48;17.90;81.10
51175;DHT22;37240;50.104;20.010;2023-03-23T06:45:48;18.40;81.70
51175;DHT22;37240;50.104;20.010;2023-03-23T06:50:49;18.70;81.30
51175;DHT22;37240;50.104;20.010;2023-03-23T06:55:50;19.10;78.50
51175;DHT22;37240;50.104;20.010;2023-03-23T07:00:57;19.50;75.20
51175;DHT22;37240;50.104;20.010;2023-03-23T07:05:58;19.80;72.10
51175;DHT22;37240;50.104;20.010;2023-03-23T07:10:58;19.90;69.60
51175;DHT22;37240;50.104;20.010;2023-03-23T07:15:59;20.00;69.70
51175;DHT22;37240;50.104;20.010;2023-03-23T07:21:00;20.20;69.00
51175;DHT22;37240;50.104;20.010;2023-03-23T07:26:00;20.40;68.00
51175;DHT22;37240;50.104;20.010;2023-03-23T07:31:01;20.50;66.90
51175;DHT22;37240;50.104;20.010;2023-03-23T07:36:02;20.70;65.70
51175;DHT22;37240;50.104;20.010;2023-03-23T07:41:03;20.80;63.20
51175;DHT22;37240;50.104;20.010;2023-03-23T07:46:03;20.80;63.10
51175;DHT22;37240;50.104;20.010;2023-03-23T07:51:05;20.80;62.00
51175;DHT22;37240;50.104;20.010;2023-03-23T07:56:06;20.80;61.70
51175;DHT22;37240;50.104;20.010;2023-03-23T08:01:07;20.90;63.00
51175;DHT22;37240;50.104;20.010;2023-03-23T08:06:08;21.20;62.00
51175;DHT22;37240;50.104;20.010;2023-03-23T08:11:09;21.40;60.10
51175;DHT22;37240;50.104;20.010;2023-03-23T08:16:09;21.40;59.30
51175;DHT22;37240;50.104;20.010;2023-03-23T08:21:10;21.50;58.60
51175;DHT22;37240;50.104;20.010;2023-03-23T08:26:10;21.40;57.80
51175;DHT22;37240;50.104;20.010;2023-03-23T08:31:13;21.30;56.90
51175;DHT22;37240;50.104;20.010;2023-03-23T08:36:14;21.10;56.90
51175;DHT22;37240;50.104;20.010;2023-03-23T08:41:15;20.90;57.30
51175;DHT22;37240;50.104;20.010;2023-03-23T08:46:16;20.70;57.50
51175;DHT22;37240;50.104;20.010;2023-03-23T08:51:16;20.50;57.80
51175;DHT22;37240;50.104;20.010;2023-03-23T08:56:17;20.40;57.90
51175;DHT22;37240;50.104;20.010;2023-03-23T09:01:17;20.30;58.40
51175;DHT22;37240;50.104;20.010;2023-03-23T09:06:18;20.30;58.20
51175;DHT22;37240;50.104;20.010;2023-03-23T09:11:18;20.40;58.00
51175;DHT22;37240;50.104;20.010;2023-03-23T09:16:19;20.40;57.50
51175;DHT22;37240;50.104;20.010;2023-03-23T09:21:19;20.50;57.40
51175;DHT22;37240;50.104;20.010;2023-03-23T09:26:20;20.70;56.60
51175;DHT22;37240;50.104;20.010;2023-03-23T09:31:22;20.70;56.40
51175;DHT22;37240;50.104;20.010;2023-03-23T09:36:23;20.80;55.90
51175;DHT22;37240;50.104;20.010;2023-03-23T09:41:54;20.80;55.20
51175;DHT22;37240;50.104;20.010;2023-03-23T09:57:18;21.10;54.40
51175;DHT22;37240;50.104;20.010;2023-03-23T10:02:36;21.20;54.30
51175;DHT22;37240;50.104;20.010;2023-03-23T10:07:38;21.30;53.70
51175;DHT22;37240;50.104;20.010;2023-03-23T10:12:52;21.50;52.60
51175;DHT22;37240;50.104;20.010;2023-03-23T10:18:02;21.60;52.60
51175;DHT22;37240;50.104;20.010;2023-03-23T10:28:22;22.00;50.80
51175;DHT22;37240;50.104;20.010;2023-03-23T10:33:37;22.00;50.40
51175;DHT22;37240;50.104;20.010;2023-03-23T10:39:02;22.10;50.50
51175;DHT22;37240;50.104;20.010;2023-03-23T10:44:24;22.20;50.40
51175;DHT22;37240;50.104;20.010;2023-03-23T10:49:38;22.20;49.10
51175;DHT22;37240;50.104;20.010;2023-03-23T10:54:51;22.10;47.80
51175;DHT22;37240;50.104;20.010;2023-03-23T10:59:58;22.10;48.20
51175;DHT22;37240;50.104;20.010;2023-03-23T11:05:05;22.10;48.10
51175;DHT22;37240;50.104;20.010;2023-03-23T11:10:35;22.00;47.00
51175;DHT22;37240;50.104;20.010;2023-03-23T11:15:41;21.90;46.80
51175;DHT22;37240;50.104;20.010;2023-03-23T11:20:46;21.80;47.20
51175;DHT22;37240;50.104;20.010;2023-03-23T11:30:55;21.90;47.30
51175;DHT22;37240;50.104;20.010;2023-03-23T11:35:57;21.90;46.50
51175;DHT22;37240;50.104;20.010;2023-03-23T11:40:59;21.90;47.20
51175;DHT22;37240;50.104;20.010;2023-03-23T11:46:39;21.90;47.00
51175;DHT22;37240;50.104;20.010;2023-03-23T11:51:50;21.90;46.80
51175;DHT22;37240;50.104;20.010;2023-03-23T11:56:52;22.10;46.10
51175;DHT22;37240;50.104;20.010;2023-03-23T12:23:24;21.80;46.50
51175;DHT22;37240;50.104;20.010;2023-03-23T12:39:11;21.70;46.30
51175;DHT22;37240;50.104;20.010;2023-03-23T12:44:13;21.70;46.60
51175;DHT22;37240;50.104;20.010;2023-03-23T12:54:40;21.60;47.70
51175;DHT22;37240;50.104;20.010;2023-03-23T12:59:54;21.60;48.20
51175;DHT22;37240;50.104;20.010;2023-03-23T13:05:08;21.60;47.90
51175;DHT22;37240;50.104;20.010;2023-03-23T13:10:23;21.60;48.20
51175;DHT22;37240;50.104;20.010;2023-03-23T13:20:50;21.50;48.70
51175;DHT22;37240;50.104;20.010;2023-03-23T13:31:03;21.40;49.30
51175;DHT22;37240;50.104;20.010;2023-03-23T13:36:10;21.30;49.60
51175;DHT22;37240;50.104;20.010;2023-03-23T13:41:13;21.20;50.00
51175;DHT22;37240;50.104;20.010;2023-03-23T13:46:29;21.10;50.20
51175;DHT22;37240;50.104;20.010;2023-03-23T13:57:01;20.90;50.90
51175;DHT22;37240;50.104;20.010;2023-03-23T14:08:00;21.00;51.20
51175;DHT22;37240;50.104;20.010;2023-03-23T14:13:03;20.90;51.70
51175;DHT22;37240;50.104;20.010;2023-03-23T14:18:04;20.90;51.70
51175;DHT22;37240;50.104;20.010;2023-03-23T14:23:04;21.00;51.80
51175;DHT22;37240;50.104;20.010;2023-03-23T14:28:19;21.00;52.10
51175;DHT22;37240;50.104;20.010;2023-03-23T14:33:20;21.00;51.90
51175;DHT22;37240;50.104;20.010;2023-03-23T14:38:22;20.90;51.70
51175;DHT22;37240;50.104;20.010;2023-03-23T14:43:23;20.90;51.70
51175;DHT22;37240;50.104;20.010;2023-03-23T14:48:25;20.90;52.00
51175;DHT22;37240;50.104;20.010;2023-03-23T14:53:32;20.90;52.10
51175;DHT22;37240;50.104;20.010;2023-03-23T14:58:33;20.90;52.20
51175;DHT22;37240;50.104;20.010;2023-03-23T15:03:43;20.90;51.80
51175;DHT22;37240;50.104;20.010;2023-03-23T15:08:45;20.90;52.10
51175;DHT22;37240;50.104;20.010;2023-03-23T15:13:49;20.90;52.40
51175;DHT22;37240;50.104;20.010;2023-03-23T15:19:40;20.90;52.40
51175;DHT22;37240;50.104;20.010;2023-03-23T15:24:26;20.90;52.40
51175;DHT22;37240;50.104;20.010;2023-03-23T15:29:27;21.00;52.10
51175;DHT22;37240;50.104;20.010;2023-03-23T15:34:35;20.90;52.00
51175;DHT22;37240;50.104;20.010;2023-03-23T15:39:40;20.90;52.50
51175;DHT22;37240;50.104;20.010;2023-03-23T15:44:41;21.00;52.20
51175;DHT22;37240;50.104;20.010;2023-03-23T15:49:43;20.90;51.90
51175;DHT22;37240;50.104;20.010;2023-03-23T15:54:47;20.90;52.10
51175;DHT22;37240;50.104;20.010;2023-03-23T15:59:48;20.90;52.00
51175;DHT22;37240;50.104;20.010;2023-03-23T16:04:49;20.80;52.30
51175;DHT22;37240;50.104;20.010;2023-03-23T16:09:50;20.80;52.60
51175;DHT22;37240;50.104;20.010;2023-03-23T16:14:51;20.80;52.70
51175;DHT22;37240;50.104;20.010;2023-03-23T16:19:51;20.60;53.20
51175;DHT22;37240;50.104;20.010;2023-03-23T16:24:52;20.60;53.20
51175;DHT22;37240;50.104;20.010;2023-03-23T16:29:52;20.70;53.30
51175;DHT22;37240;50.104;20.010;2023-03-23T16:34:53;20.60;53.30
51175;DHT22;37240;50.104;20.010;2023-03-23T16:39:54;20.50;53.70
51175;DHT22;37240;50.104;20.010;2023-03-23T16:44:54;20.40;54.00
51175;DHT22;37240;50.104;20.010;2023-03-23T16:49:55;20.40;54.10
51175;DHT22;37240;50.104;20.010;2023-03-23T16:54:55;20.40;54.00
51175;DHT22;37240;50.104;20.010;2023-03-23T16:59:56;20.40;54.00
51175;DHT22;37240;50.104;20.010;2023-03-23T17:04:56;20.40;53.50
51175;DHT22;37240;50.104;20.010;2023-03-23T17:09:57;20.30;53.40
51175;DHT22;37240;50.104;20.010;2023-03-23T17:14:58;20.20;54.00
51175;DHT22;37240;50.104;20.010;2023-03-23T17:19:58;20.00;54.50
51175;DHT22;37240;50.104;20.010;2023-03-23T17:24:59;19.90;54.80
51175;DHT22;37240;50.104;20.010;2023-03-23T17:30:00;19.80;55.40
51175;DHT22;37240;50.104;20.010;2023-03-23T17:35:00;19.70;56.40
51175;DHT22;37240;50.104;20.010;2023-03-23T17:40:01;19.60;56.60
51175;DHT22;37240;50.104;20.010;2023-03-23T17:45:03;19.50;57.10
51175;DHT22;37240;50.104;20.010;2023-03-23T17:50:05;19.40;57.30
51175;DHT22;37240;50.104;20.010;2023-03-23T17:55:06;19.40;57.50
51175;DHT22;37240;50.104;20.010;2023-03-23T18:00:08;19.30;57.60
51175;DHT22;37240;50.104;20.010;2023-03-23T18:05:08;19.30;57.80
51175;DHT22;37240;50.104;20.010;2023-03-23T18:10:09;19.20;58.10
51175;DHT22;37240;50.104;20.010;2023-03-23T18:15:10;19.20;58.30
51175;DHT22;37240;50.104;20.010;2023-03-23T18:20:11;19.10;58.50
51175;DHT22;37240;50.104;20.010;2023-03-23T18:25:11;19.10;58.50
51175;DHT22;37240;50.104;20.010;2023-03-23T18:30:12;19.00;58.80
51175;DHT22;37240;50.104;20.010;2023-03-23T18:35:13;19.00;58.90
51175;DHT22;37240;50.104;20.010;2023-03-23T18:40:14;18.90;58.30
51175;DHT22;37240;50.104;20.010;2023-03-23T18:45:14;18.90;58.30
51175;DHT22;37240;50.104;20.010;2023-03-23T18:50:15;18.90;58.40
51175;DHT22;37240;50.104;20.010;2023-03-23T18:55:15;18.90;58.70
51175;DHT22;37240;50.104;20.010;2023-03-23T19:00:16;18.90;59.00
51175;DHT22;37240;50.104;20.010;2023-03-23T19:05:17;18.90;59.30
51175;DHT22;37240;50.104;20.010;2023-03-23T19:10:18;18.90;58.90
51175;DHT22;37240;50.104;20.010;2023-03-23T19:15:19;18.90;58.60
51175;DHT22;37240;50.104;20.010;2023-03-23T19:20:19;19.00;58.40
51175;DHT22;37240;50.104;20.010;2023-03-23T19:25:20;19.00;58.10
51175;DHT22;37240;50.104;20.010;2023-03-23T19:30:20;19.00;57.80
51175;DHT22;37240;50.104;20.010;2023-03-23T19:35:21;19.00;57.70
51175;DHT22;37240;50.104;20.010;2023-03-23T19:40:21;19.00;58.10
51175;DHT22;37240;50.104;20.010;2023-03-23T19:45:22;19.00;57.80
51175;DHT22;37240;50.104;20.010;2023-03-23T19:50:22;19.00;57.70
51175;DHT22;37240;50.104;20.010;2023-03-23T19:55:23;18.90;57.50
51175;DHT22;37240;50.104;20.010;2023-03-23T20:00:24;18.90;57.20
51175;DHT22;37240;50.104;20.010;2023-03-23T20:05:24;18.90;56.90
51175;DHT22;37240;50.104;20.010;2023-03-23T20:10:25;18.80;56.60
51175;DHT22;37240;50.104;20.010;2023-03-23T20:15:26;18.70;56.80
51175;DHT22;37240;50.104;20.010;2023-03-23T20:20:27;18.70;56.80
51175;DHT22;37240;50.104;20.010;2023-03-23T20:25:27;18.60;56.50
51175;DHT22;37240;50.104;20.010;2023-03-23T20:30:28;18.60;56.90
51175;DHT22;37240;50.104;20.010;2023-03-23T20:35:29;18.60;56.80
51175;DHT22;37240;50.104;20.010;2023-03-23T20:40:29;18.60;57.10
51175;DHT22;37240;50.104;20.010;2023-03-23T20:45:30;18.50;57.30
51175;DHT22;37240;50.104;20.010;2023-03-23T20:50:30;18.50;57.30
51175;DHT22;37240;50.104;20.010;2023-03-23T20:55:31;18.40;58.10
51175;DHT22;37240;50.104;20.010;2023-03-23T21:00:32;18.40;58.40
51175;DHT22;37240;50.104;20.010;2023-03-23T21:05:33;18.50;58.50
51175;DHT22;37240;50.104;20.010;2023-03-23T21:10:34;18.40;59.00
51175;DHT22;37240;50.104;20.010;2023-03-23T21:15:34;18.40;59.90
51175;DHT22;37240;50.104;20.010;2023-03-23T21:20:35;18.30;61.00
51175;DHT22;37240;50.104;20.010;2023-03-23T21:25:36;18.20;61.90
51175;DHT22;37240;50.104;20.010;2023-03-23T21:30:37;18.00;62.20
51175;DHT22;37240;50.104;20.010;2023-03-23T21:35:39;17.90;62.60
51175;DHT22;37240;50.104;20.010;2023-03-23T21:40:41;17.90;63.00
51175;DHT22;37240;50.104;20.010;2023-03-23T21:45:42;17.80;63.70
51175;DHT22;37240;50.104;20.010;2023-03-23T21:50:43;17.70;64.30
51175;DHT22;37240;50.104;20.010;2023-03-23T21:55:45;17.70;64.60
51175;DHT22;37240;50.104;20.010;2023-03-23T22:00:46;17.60;64.80
51175;DHT22;37240;50.104;20.010;2023-03-23T22:05:47;17.60;65.50
51175;DHT22;37240;50.104;20.010;2023-03-23T22:10:48;17.60;65.60
51175;DHT22;37240;50.104;20.010;2023-03-23T22:15:49;17.60;65.90
51175;DHT22;37240;50.104;20.010;2023-03-23T22:20:50;17.50;66.70
51175;DHT22;37240;50.104;20.010;2023-03-23T22:25:51;17.40;67.70
51175;DHT22;37240;50.104;20.010;2023-03-23T22:30:53;17.30;68.80
51175;DHT22;37240;50.104;20.010;2023-03-23T22:35:54;17.30;69.80
51175;DHT22;37240;50.104;20.010;2023-03-23T22:40:56;17.20;70.00
51175;DHT22;37240;50.104;20.010;2023-03-23T22:45:57;17.20;69.90
51175;DHT22;37240;50.104;20.010;2023-03-23T22:50:58;17.20;70.00
51175;DHT22;37240;50.104;20.010;2023-03-23T22:55:59;17.20;70.20
51175;DHT22;37240;50.104;20.010;2023-03-23T23:01:05;17.30;70.10
51175;DHT22;37240;50.104;20.010;2023-03-23T23:06:06;17.30;70.40
51175;DHT22;37240;50.104;20.010;2023-03-23T23:11:10;17.40;70.10
51175;DHT22;37240;50.104;20.010;2023-03-23T23:16:12;17.30;70.70
51175;DHT22;37240;50.104;20.010;2023-03-23T23:21:16;17.30;70.80
51175;DHT22;37240;50.104;20.010;2023-03-23T23:26:17;17.20;71.20
51175;DHT22;37240;50.104;20.010;2023-03-23T23:31:27;17.20;71.40
51175;DHT22;37240;50.104;20.010;2023-03-23T23:36:29;17.20;71.60
51175;DHT22;37240;50.104;20.010;2023-03-23T23:41:29;17.20;72.00
51175;DHT22;37240;50.104;20.010;2023-03-23T23:46:30;17.20;72.50
51175;DHT22;37240;50.104;20.010;2023-03-23T23:51:31;17.20;73.50
51175;DHT22;37240;50.104;20.010;2023-03-23T23:56:31;17.20;73.80
